SPG weather

Albert Whitted Airport
St Petersburg, Florida, United States

Public forecast

Using degrees Fahrenheit for public forecast. Weather courtesy of forecast.io.

Current aviation weather report (METAR) for Albert Whitted Airport

Retrieved 2019/10/17 16:53 UTC (51 minutes ago):

KSPG 171653Z 13005KT 10SM CLR 27/21 A2993 RMK AO2 SLP135 T02720211

Closest aviation forecast (TAF) to Albert Whitted Airport

Forecast is more than 6 hours old.

Closest forecast is Mac Dill Air Force Base, 7.6 nm (14.0 km) NE. Retrieved 2019/10/17 09:00 UTC (9 hours ago):

TAF TAF KMCF 170900Z 1709/1815 33006KT 9999 BKN025 QNH2988INS BECMG 1717/1718 VRB09KT 9999 VCTS SCT035CB QNH2986INS BECMG 1723/1800 36006KT 9999 NSW BKN035 QNH2986INS BECMG 1807/1808 04006KT 9999 BKN010 QNH2990INS TX29/1719Z TN22/1808Z